Time;durP1;ratioP1;P1;durP2;ratioP2;P2;SDS_P1;SDS_P2;PMS_P1;PMS_P2;Temp;Humidity;BMP_temperature;BMP_pressure;BME280_temperature;BME280_humidity;BME280_pressure;Samples;Min_cycle;Max_cycle;Signal;HPM_P1;HPM_P2
2022/09/20 00:04:06;;;;;;;4.10;1.60;;;20.50;76.10;;;;;;214944;1299;25483;-52
2022/09/20 00:09:11;;;;;;;3.40;1.70;;;20.50;76.60;;;;;;215132;1299;22566;-53
2022/09/20 00:14:14;;;;;;;3.90;1.60;;;20.50;76.20;;;;;;214941;1299;22572;-58
2022/09/20 00:19:20;;;;;;;3.70;1.70;;;20.50;76.00;;;;;;214888;1299;22609;-52
2022/09/20 00:24:24;;;;;;;3.50;1.40;;;20.50;76.30;;;;;;214870;1297;23322;-56
2022/09/20 00:29:28;;;;;;;7.90;1.90;;;20.50;76.10;;;;;;215134;1299;22674;-54
2022/09/20 00:39:53;;;;;;;4.60;1.50;;;20.40;76.30;;;;;;214835;1297;22571;-52
2022/09/20 00:45:00;;;;;;;4.80;1.50;;;20.40;76.00;;;;;;214580;1296;22848;-54
2022/09/20 00:50:25;;;;;;;3.20;1.30;;;20.40;76.00;;;;;;215670;1296;22570;-53
2022/09/20 00:55:30;;;;;;;6.20;1.60;;;20.40;75.80;;;;;;214606;1299;25292;-53
2022/09/20 01:00:33;;;;;;;5.60;1.90;;;20.40;75.90;;;;;;214953;1300;23952;-53
2022/09/20 01:05:38;;;;;;;4.10;1.70;;;20.40;76.20;;;;;;215231;1299;22574;-52
2022/09/20 01:10:42;;;;;;;3.30;1.10;;;20.40;75.90;;;;;;215235;1299;25286;-55
2022/09/20 01:15:48;;;;;;;2.80;1.30;;;20.40;75.90;;;;;;215604;1296;24262;-55
2022/09/20 01:20:51;;;;;;;2.90;1.30;;;20.40;75.80;;;;;;214752;1299;222561;-56
2022/09/20 01:26:04;;;;;;;5.00;1.60;;;20.40;75.80;;;;;;215051;1299;23938;-53
2022/09/20 01:31:25;;;;;;;4.10;1.80;;;20.40;76.00;;;;;;214999;1299;22583;-55
2022/09/20 01:37:14;;;;;;;3.90;1.40;;;20.30;75.60;;;;;;214794;1299;22567;-55
2022/09/20 01:42:18;;;;;;;5.20;1.30;;;20.30;75.60;;;;;;214538;1299;22572;-56
2022/09/20 01:47:48;;;;;;;3.30;1.10;;;20.30;75.70;;;;;;215202;1297;22591;-54
2022/09/20 01:53:21;;;;;;;4.80;1.30;;;20.40;75.70;;;;;;214963;1296;23352;-52
2022/09/20 01:58:49;;;;;;;5.90;1.40;;;20.60;75.30;;;;;;215234;1297;22595;-54
2022/09/20 02:04:24;;;;;;;3.00;1.60;;;20.60;74.90;;;;;;214793;1299;22566;-56
2022/09/20 02:09:59;;;;;;;5.70;1.40;;;20.70;74.60;;;;;;215009;1297;22602;-54
2022/09/20 02:15:41;;;;;;;5.60;1.20;;;20.80;74.50;;;;;;215017;1297;25357;-55
2022/09/20 02:21:12;;;;;;;3.20;1.20;;;20.80;74.60;;;;;;214852;1297;25246;-56
2022/09/20 02:26:21;;;;;;;;;;;20.90;74.20;;;;;;215237;1299;22655;-56
2022/09/20 02:31:55;;;;;;;3.90;1.60;;;20.90;74.10;;;;;;215008;1299;22578;-55
2022/09/20 02:37:37;;;;;;;3.00;1.40;;;20.90;74.10;;;;;;215166;1300;25289;-55
2022/09/20 02:42:53;;;;;;;4.30;1.90;;;20.90;74.00;;;;;;215080;1298;22601;-55
2022/09/20 02:48:02;;;;;;;2.80;1.40;;;20.90;73.80;;;;;;215124;1300;22582;-54
2022/09/20 02:53:35;;;;;;;3.80;1.40;;;20.90;73.90;;;;;;214927;1299;24361;-54
2022/09/20 02:58:53;;;;;;;3.60;1.60;;;20.90;73.90;;;;;;214962;1297;23038;-55
2022/09/20 03:04:06;;;;;;;2.50;1.20;;;20.90;73.80;;;;;;215006;1296;22618;-54
2022/09/20 03:09:33;;;;;;;3.20;1.10;;;20.90;73.60;;;;;;214858;1297;24262;-53
2022/09/20 03:14:50;;;;;;;4.70;1.50;;;20.90;73.70;;;;;;214940;1297;22599;-54
2022/09/20 03:20:05;;;;;;;2.40;1.00;;;20.90;73.70;;;;;;215072;1300;22588;-55
2022/09/20 03:25:17;;;;;;;3.50;1.10;;;20.90;73.50;;;;;;215094;1299;22584;-54
2022/09/20 03:30:40;;;;;;;3.30;1.20;;;20.90;73.50;;;;;;215040;1297;26437;-54
2022/09/20 03:36:11;;;;;;;3.30;1.20;;;20.90;73.00;;;;;;215346;1297;23921;-55
2022/09/20 03:41:41;;;;;;;4.40;1.20;;;20.90;73.20;;;;;;215138;1299;22609;-51
2022/09/20 03:46:46;;;;;;;3.20;1.10;;;20.90;73.30;;;;;;215197;1300;22577;-56
2022/09/20 03:52:02;;;;;;;2.60;1.20;;;20.90;73.30;;;;;;215049;1297;23166;-54
2022/09/20 03:57:09;;;;;;;3.20;1.30;;;21.00;73.40;;;;;;215100;1297;22563;-54
2022/09/20 04:02:28;;;;;;;2.80;1.30;;;21.00;73.40;;;;;;215017;1300;22567;-57
2022/09/20 04:07:51;;;;;;;1.60;0.90;;;20.90;72.90;;;;;;215143;1299;24320;-54
2022/09/20 04:13:16;;;;;;;4.00;1.20;;;20.90;73.00;;;;;;214766;1296;25512;-54
2022/09/20 04:18:29;;;;;;;3.40;1.10;;;20.90;72.60;;;;;;214841;1299;22582;-54
2022/09/20 04:23:42;;;;;;;2.50;1.10;;;21.00;73.10;;;;;;214813;1297;22627;-57
2022/09/20 04:28:51;;;;;;;2.10;1.10;;;21.00;73.20;;;;;;215030;1297;22750;-55
2022/09/20 04:33:59;;;;;;;;;;;21.00;73.00;;;;;;214858;1299;22616;-54
2022/09/20 04:39:10;;;;;;;2.20;1.00;;;21.00;72.80;;;;;;214952;1297;22556;-58
2022/09/20 04:44:36;;;;;;;2.90;1.10;;;21.00;73.10;;;;;;214970;1297;22587;-54
2022/09/20 04:49:46;;;;;;;1.70;0.80;;;21.00;72.90;;;;;;214652;1297;24356;-57
2022/09/20 04:55:32;;;;;;;3.20;1.30;;;21.00;72.70;;;;;;215107;1296;24906;-53
2022/09/20 05:00:54;;;;;;;2.80;1.10;;;21.00;72.60;;;;;;214894;1297;25276;-54
2022/09/20 05:06:22;;;;;;;3.80;1.10;;;21.00;72.60;;;;;;214896;1299;22598;-54
2022/09/20 05:12:19;;;;;;;2.80;1.20;;;21.00;72.60;;;;;;215052;1299;23079;-53
2022/09/20 05:17:42;;;;;;;2.50;1.20;;;21.00;73.10;;;;;;214869;1296;22592;-53
2022/09/20 05:23:22;;;;;;;2.70;1.20;;;21.00;72.60;;;;;;214868;1296;25266;-56
2022/09/20 05:28:59;;;;;;;3.30;0.90;;;21.00;72.50;;;;;;214678;1299;22965;-55
2022/09/20 05:34:28;;;;;;;3.20;0.80;;;21.00;73.00;;;;;;214827;1299;22606;-54
2022/09/20 05:39:40;;;;;;;2.60;1.20;;;20.90;72.50;;;;;;215039;1296;24036;-54
2022/09/20 05:44:43;;;;;;;4.30;1.10;;;20.90;72.70;;;;;;214849;1299;22742;-57
2022/09/20 05:50:25;;;;;;;3.80;0.90;;;20.90;72.80;;;;;;214988;1296;22592;-58
2022/09/20 05:55:59;;;;;;;8.40;1.50;;;21.00;72.60;;;;;;214954;1299;22579;-55
2022/09/20 06:01:39;;;;;;;6.70;1.00;;;21.00;73.20;;;;;;214845;1297;22589;-56
2022/09/20 06:07:11;;;;;;;5.50;1.00;;;21.10;72.60;;;;;;214515;1299;25550;-56
2022/09/20 06:12:55;;;;;;;8.10;0.90;;;21.20;72.70;;;;;;214658;1299;22586;-51
2022/09/20 06:18:07;;;;;;;2.30;0.80;;;21.20;72.70;;;;;;214884;1299;22863;-55
2022/09/20 06:23:11;;;;;;;5.00;1.00;;;21.10;72.90;;;;;;215008;1297;25280;-55
2022/09/20 06:28:20;;;;;;;5.80;1.10;;;21.20;72.70;;;;;;215102;1299;22605;-51
2022/09/20 06:33:27;;;;;;;9.70;1.80;;;21.20;73.00;;;;;;215043;1299;22590;-55
2022/09/20 06:44:12;;;;;;;13.00;1.10;;;21.30;73.40;;;;;;214976;1299;22599;-52
2022/09/20 06:49:16;;;;;;;11.30;1.40;;;21.30;72.60;;;;;;215125;1299;23957;-55
2022/09/20 06:54:21;;;;;;;9.30;1.80;;;21.30;72.40;;;;;;214466;1298;24243;-51
2022/09/20 06:59:25;;;;;;;15.80;1.30;;;21.30;72.40;;;;;;217955;1296;24256;-54
2022/09/20 07:04:29;;;;;;;13.70;1.80;;;21.30;72.20;;;;;;214920;1296;25277;-53
2022/09/20 07:09:34;;;;;;;13.00;1.80;;;21.30;72.00;;;;;;214729;1299;24354;-51
2022/09/20 07:14:38;;;;;;;3.70;1.70;;;21.20;72.00;;;;;;214611;1296;25277;-54
2022/09/20 07:19:42;;;;;;;8.80;1.20;;;21.20;72.20;;;;;;214911;1296;22732;-53
2022/09/20 07:24:47;;;;;;;7.70;1.20;;;21.20;72.30;;;;;;215011;1296;22941;-53
2022/09/20 07:29:50;;;;;;;6.00;1.90;;;21.20;71.90;;;;;;214918;1296;24259;-53
2022/09/20 07:34:54;;;;;;;5.50;1.60;;;21.20;71.90;;;;;;214966;1299;22633;-54
2022/09/20 07:39:58;;;;;;;13.30;1.50;;;21.10;71.80;;;;;;215288;1296;24646;-55
2022/09/20 07:45:02;;;;;;;8.90;1.20;;;21.10;71.80;;;;;;215171;1296;26516;-51
2022/09/20 07:50:08;;;;;;;2.20;1.00;;;21.10;71.70;;;;;;214988;1298;22563;-57
2022/09/20 07:55:12;;;;;;;3.50;1.60;;;21.10;71.80;;;;;;214887;1296;24323;-56
2022/09/20 08:00:33;;;;;;;3.00;1.40;;;21.10;71.80;;;;;;214805;1296;22567;-55
2022/09/20 08:05:37;;;;;;;3.90;1.30;;;21.10;71.70;;;;;;215023;1297;22576;-54
2022/09/20 08:10:40;;;;;;;3.30;0.90;;;21.00;71.80;;;;;;215027;1297;23051;-54
2022/09/20 08:15:44;;;;;;;2.20;0.90;;;21.00;71.80;;;;;;214846;1297;22566;-54
2022/09/20 08:20:47;;;;;;;3.70;0.90;;;21.00;71.70;;;;;;214768;1297;24785;-53
2022/09/20 08:25:51;;;;;;;3.10;1.00;;;21.00;71.70;;;;;;214810;1297;22695;-53
2022/09/20 08:31:06;;;;;;;2.20;1.00;;;21.00;71.90;;;;;;215105;1296;22712;-52
2022/09/20 08:36:16;;;;;;;2.80;1.10;;;21.00;72.00;;;;;;215055;1297;24236;-54
2022/09/20 08:41:29;;;;;;;3.10;1.10;;;21.00;72.00;;;;;;215052;1297;24260;-54
2022/09/20 08:46:47;;;;;;;2.90;1.00;;;20.90;72.10;;;;;;215101;1299;22579;-57
2022/09/20 08:51:53;;;;;;;3.00;1.10;;;20.90;72.00;;;;;;214789;1299;22600;-55
2022/09/20 08:57:02;;;;;;;3.60;1.50;;;20.90;71.90;;;;;;215063;1296;24259;-55
2022/09/20 09:02:20;;;;;;;2.40;0.90;;;20.90;71.80;;;;;;215128;1297;22669;-54
2022/09/20 09:07:38;;;;;;;2.40;1.20;;;20.90;72.10;;;;;;214672;1297;22587;-54
2022/09/20 09:12:45;;;;;;;3.90;1.00;;;20.90;72.10;;;;;;215106;1296;25445;-52
2022/09/20 09:17:52;;;;;;;4.00;1.20;;;21.00;72.10;;;;;;214772;1296;23228;-61
2022/09/20 09:23:10;;;;;;;2.70;1.10;;;21.10;71.90;;;;;;214676;1296;22595;-54
2022/09/20 09:28:14;;;;;;;1.40;0.70;;;21.10;71.90;;;;;;214803;1297;22598;-56
2022/09/20 09:33:29;;;;;;;4.70;1.00;;;21.10;71.90;;;;;;214802;1297;22568;-54
2022/09/20 09:38:38;;;;;;;3.20;1.20;;;21.10;72.10;;;;;;214910;1299;22581;-53
2022/09/20 09:43:42;;;;;;;2.90;1.10;;;21.10;71.70;;;;;;215288;1298;25521;-55
2022/09/20 09:49:03;;;;;;;4.10;1.30;;;21.10;72.30;;;;;;214684;1297;22569;-52
2022/09/20 09:54:18;;;;;;;2.40;1.30;;;21.00;72.20;;;;;;214965;1299;22568;-54
2022/09/20 09:59:39;;;;;;;4.60;1.50;;;21.10;72.20;;;;;;215072;1299;25420;-55
2022/09/20 10:04:57;;;;;;;4.60;1.10;;;21.10;72.20;;;;;;215045;1300;24720;-54
2022/09/20 10:10:31;;;;;;;3.00;1.10;;;21.10;72.20;;;;;;215000;1296;24944;-49
2022/09/20 10:15:58;;;;;;;3.00;1.20;;;21.10;72.10;;;;;;215150;1296;26622;-50
2022/09/20 10:21:01;;;;;;;2.00;1.00;;;21.10;71.30;;;;;;214592;1299;22644;-50
2022/09/20 10:26:23;;;;;;;2.90;1.30;;;21.20;71.80;;;;;;214848;1296;26517;-52
2022/09/20 10:31:43;;;;;;;4.00;1.50;;;21.20;72.00;;;;;;214981;1296;25402;-54
2022/09/20 10:36:57;;;;;;;3.00;1.50;;;21.20;72.80;;;;;;215166;1296;22821;-52
2022/09/20 10:47:58;;;;;;;5.40;1.30;;;21.20;72.30;;;;;;215271;1297;22589;-56
2022/09/20 10:53:17;;;;;;;2.80;1.50;;;21.30;71.90;;;;;;215059;1299;22572;-49
2022/09/20 10:58:27;;;;;;;1.90;1.10;;;21.30;71.80;;;;;;214936;1299;22580;-54
2022/09/20 11:03:30;;;;;;;3.60;1.70;;;21.30;71.60;;;;;;215121;1299;22586;-53
2022/09/20 11:08:37;;;;;;;2.40;1.30;;;21.30;71.60;;;;;;215203;1296;24650;-51
2022/09/20 11:14:32;;;;;;;3.50;1.50;;;21.30;71.50;;;;;;215148;1296;25403;-49
2022/09/20 11:19:55;;;;;;;2.80;1.20;;;21.30;71.70;;;;;;213370;1306;24846;-52
2022/09/20 11:25:02;;;;;;;2.20;1.10;;;21.30;71.40;;;;;;214721;1299;25367;-52
2022/09/20 11:30:20;;;;;;;2.60;1.10;;;21.30;71.30;;;;;;215180;1296;24440;-51
2022/09/20 11:35:33;;;;;;;2.20;1.20;;;21.30;71.30;;;;;;215281;1296;23896;-52
2022/09/20 11:40:41;;;;;;;2.30;1.10;;;21.30;71.20;;;;;;215113;1297;24304;-54
2022/09/20 11:45:52;;;;;;;5.20;1.30;;;21.20;71.20;;;;;;215249;1297;22524;-48
2022/09/20 11:51:25;;;;;;;2.60;1.30;;;21.20;71.40;;;;;;214932;1299;25354;-50
2022/09/20 11:56:32;;;;;;;3.10;1.20;;;21.30;71.10;;;;;;215129;1296;24293;-48
2022/09/20 12:01:39;;;;;;;4.50;1.40;;;21.20;71.50;;;;;;215130;1296;25286;-51
2022/09/20 12:07:03;;;;;;;4.80;1.20;;;21.20;72.70;;;;;;214970;1297;23107;-53
2022/09/20 12:12:42;;;;;;;5.40;1.10;;;21.20;73.10;;;;;;214619;1297;24017;-52
2022/09/20 12:17:47;;;;;;;7.20;1.50;;;21.30;73.70;;;;;;215214;1299;22629;-51
2022/09/20 12:23:31;;;;;;;3.10;1.20;;;21.30;73.30;;;;;;215236;1296;22567;-58
2022/09/20 12:28:37;;;;;;;5.00;1.40;;;21.30;73.20;;;;;;214639;1298;25402;-48
2022/09/20 12:34:08;;;;;;;3.60;1.50;;;21.30;73.10;;;;;;214881;1297;22591;-47
2022/09/20 12:39:12;;;;;;;3.40;1.30;;;21.30;72.70;;;;;;214800;1297;22563;-47
2022/09/20 12:44:31;;;;;;;2.20;0.90;;;21.30;72.60;;;;;;214788;1296;22574;-49
2022/09/20 12:55:13;;;;;;;35.30;9.40;;;21.30;72.60;;;;;;214925;1296;22865;-47
2022/09/20 13:00:59;;;;;;;20.60;4.70;;;21.30;72.90;;;;;;214698;1299;24444;-49
2022/09/20 13:06:05;;;;;;;11.90;3.60;;;21.40;74.30;;;;;;214929;1296;22605;-54
2022/09/20 13:11:21;;;;;;;11.50;3.20;;;21.50;73.60;;;;;;215089;1297;22601;-51
2022/09/20 13:16:35;;;;;;;13.50;3.50;;;21.60;72.90;;;;;;214959;1296;24424;-60
2022/09/20 13:21:47;;;;;;;19.30;3.70;;;21.60;73.30;;;;;;214620;1298;25420;-50
2022/09/20 13:27:02;;;;;;;11.20;3.90;;;21.70;73.50;;;;;;216206;1296;22607;-49
2022/09/20 13:32:27;;;;;;;16.80;3.80;;;21.70;72.60;;;;;;214969;1297;23028;-49
2022/09/20 13:37:35;;;;;;;10.70;3.10;;;21.70;72.60;;;;;;214739;1297;22595;-50
2022/09/20 13:42:42;;;;;;;11.70;3.40;;;21.80;72.40;;;;;;214934;1299;25474;-57
2022/09/20 13:47:50;;;;;;;11.00;3.10;;;21.70;72.50;;;;;;214991;1297;24283;-59
2022/09/20 13:53:00;;;;;;;12.60;3.40;;;21.70;72.40;;;;;;214981;1299;25342;-56
2022/09/20 13:58:18;;;;;;;11.90;3.80;;;21.70;72.20;;;;;;214866;1296;24253;-56
2022/09/20 14:03:25;;;;;;;9.90;2.50;;;21.70;72.10;;;;;;214960;1297;22572;-55
2022/09/20 14:08:48;;;;;;;9.70;3.50;;;21.70;72.00;;;;;;215548;1297;22711;-52
2022/09/20 14:13:55;;;;;;;7.90;3.10;;;21.70;71.90;;;;;;214956;1297;26552;-53
2022/09/20 14:19:06;;;;;;;8.00;2.50;;;21.70;71.40;;;;;;214946;1297;22570;-53
2022/09/20 14:24:13;;;;;;;8.20;2.40;;;21.70;71.70;;;;;;214562;1298;22573;-54
2022/09/20 14:29:41;;;;;;;8.40;2.90;;;21.70;71.50;;;;;;214850;1296;25503;-54
2022/09/20 14:35:21;;;;;;;6.90;2.50;;;21.80;71.80;;;;;;214809;1297;22597;-52
2022/09/20 14:40:32;;;;;;;9.60;2.90;;;21.70;71.30;;;;;;214788;1297;22580;-56
2022/09/20 14:45:41;;;;;;;13.40;2.90;;;21.80;71.30;;;;;;214631;1296;22591;-55
2022/09/20 14:51:15;;;;;;;10.60;3.30;;;21.80;72.10;;;;;;214936;1296;24269;-54
2022/09/20 14:56:36;;;;;;;9.60;2.90;;;21.80;75.60;;;;;;214607;1297;25399;-52
2022/09/20 15:02:15;;;;;;;8.00;3.00;;;21.80;77.20;;;;;;214808;1299;22860;-49
2022/09/20 15:07:21;;;;;;;10.30;3.30;;;21.90;76.30;;;;;;214959;1299;22608;-49
2022/09/20 15:12:25;;;;;;;15.30;3.50;;;21.90;76.70;;;;;;215025;1297;22585;-50
2022/09/20 15:17:28;;;;;;;10.30;2.90;;;21.90;76.20;;;;;;214713;1296;24353;-52
2022/09/20 15:22:37;;;;;;;7.90;2.30;;;22.00;75.50;;;;;;214973;1296;25406;-52
2022/09/20 15:27:43;;;;;;;11.20;2.60;;;22.10;75.90;;;;;;214546;1299;22749;-57
2022/09/20 15:32:48;;;;;;;8.30;2.90;;;22.10;74.90;;;;;;216461;1298;23870;-49
2022/09/20 15:37:54;;;;;;;8.10;2.70;;;22.00;74.80;;;;;;216228;1299;22738;-50
2022/09/20 15:42:58;;;;;;;27.80;3.00;;;22.10;74.80;;;;;;214870;1296;24348;-46
2022/09/20 15:48:07;;;;;;;11.30;2.90;;;22.10;75.00;;;;;;214917;1297;24873;-47
2022/09/20 15:54:01;;;;;;;23.40;3.70;;;22.10;74.50;;;;;;214882;1300;23862;-54
2022/09/20 15:59:10;;;;;;;9.90;2.40;;;22.00;74.30;;;;;;215028;1299;24471;-48
2022/09/20 16:04:17;;;;;;;9.20;2.70;;;22.10;74.30;;;;;;214691;1297;25434;-55
2022/09/20 16:09:24;;;;;;;8.00;2.80;;;22.00;74.00;;;;;;214962;1299;22575;-46
2022/09/20 16:14:44;;;;;;;12.20;4.20;;;22.00;73.60;;;;;;214525;1299;22586;-51
2022/09/20 16:20:03;;;;;;;10.80;3.10;;;22.10;74.50;;;;;;214670;1299;22721;-49
2022/09/20 16:25:35;;;;;;;11.40;3.10;;;22.10;74.30;;;;;;214532;1299;24260;-50
2022/09/20 16:30:58;;;;;;;7.70;2.40;;;22.10;74.00;;;;;;215203;1299;22570;-50
2022/09/20 16:36:08;;;;;;;8.30;2.80;;;22.00;73.30;;;;;;214881;1297;25408;-49
2022/09/20 16:41:17;;;;;;;4.90;2.50;;;21.90;73.70;;;;;;214950;1297;24324;-49
2022/09/20 16:46:35;;;;;;;8.20;2.80;;;21.90;73.60;;;;;;214886;1296;22989;-49
2022/09/20 16:51:48;;;;;;;8.50;2.90;;;21.80;73.20;;;;;;215088;1296;24481;-50
2022/09/20 16:56:56;;;;;;;9.50;3.00;;;21.70;72.90;;;;;;214601;1299;22572;-46
2022/09/20 17:02:21;;;;;;;13.50;2.80;;;21.80;72.90;;;;;;214944;1299;22565;-49
2022/09/20 17:07:41;;;;;;;9.10;3.10;;;21.80;72.30;;;;;;214672;1296;24350;-49
2022/09/20 17:12:51;;;;;;;14.60;4.00;;;21.80;71.90;;;;;;215020;1297;24551;-50
2022/09/20 17:17:56;;;;;;;12.20;3.70;;;21.80;71.40;;;;;;215100;1296;24287;-50
2022/09/20 17:23:08;;;;;;;11.40;2.70;;;21.80;71.60;;;;;;214787;1297;24414;-50
2022/09/20 17:28:13;;;;;;;10.40;3.20;;;21.80;71.80;;;;;;214629;1299;25257;-49
2022/09/20 17:33:20;;;;;;;7.20;2.80;;;21.80;71.80;;;;;;214827;1299;24347;-48
2022/09/20 17:38:38;;;;;;;13.00;3.30;;;21.80;71.70;;;;;;214623;1297;28154;-49
2022/09/20 17:43:47;;;;;;;9.60;2.60;;;21.80;71.30;;;;;;214567;1297;22595;-52
2022/09/20 17:49:01;;;;;;;13.50;3.30;;;21.80;71.20;;;;;;215181;1296;24266;-52
2022/09/20 17:54:07;;;;;;;17.00;3.10;;;21.80;70.90;;;;;;214655;1299;25345;-52
2022/09/20 17:59:16;;;;;;;16.70;3.50;;;21.80;71.30;;;;;;215166;1299;22570;-53
2022/09/20 18:04:27;;;;;;;9.60;2.50;;;21.80;70.70;;;;;;214786;1296;22581;-51
2022/09/20 18:09:44;;;;;;;6.60;2.30;;;21.80;70.40;;;;;;215109;1300;23964;-51
2022/09/20 18:14:55;;;;;;;8.90;2.80;;;21.80;70.40;;;;;;214636;1299;25280;-52
2022/09/20 18:19:59;;;;;;;11.20;2.90;;;21.80;70.30;;;;;;214896;1296;23915;-51
2022/09/20 18:25:08;;;;;;;8.80;2.60;;;21.70;70.10;;;;;;214970;1296;24305;-49
2022/09/20 18:30:16;;;;;;;13.20;2.80;;;21.70;70.20;;;;;;214917;1296;22570;-48
2022/09/20 18:35:21;;;;;;;12.20;3.20;;;21.70;70.60;;;;;;214842;1299;25233;-53
2022/09/20 18:40:28;;;;;;;12.70;3.70;;;21.70;72.80;;;;;;214772;1297;25522;-51
2022/09/20 18:45:35;;;;;;;10.10;2.20;;;21.70;74.60;;;;;;214904;1297;24383;-52
2022/09/20 18:50:39;;;;;;;8.30;2.60;;;21.80;75.00;;;;;;214919;1297;22761;-53
2022/09/20 18:55:48;;;;;;;7.20;2.60;;;21.80;75.30;;;;;;215046;1297;25339;-52
2022/09/20 19:01:20;;;;;;;14.70;3.00;;;21.80;77.90;;;;;;214971;1297;23981;-52
2022/09/20 19:06:37;;;;;;;10.10;3.50;;;21.80;77.80;;;;;;214511;1299;24170;-51
2022/09/20 19:11:54;;;;;;;15.30;2.80;;;21.80;76.70;;;;;;215162;1296;24312;-51
2022/09/20 19:17:01;;;;;;;8.90;2.50;;;21.90;76.40;;;;;;214744;1299;22566;-50
2022/09/20 19:22:36;;;;;;;7.00;2.60;;;21.90;76.30;;;;;;214881;1300;24337;-53
2022/09/20 19:27:44;;;;;;;6.70;2.50;;;21.90;75.90;;;;;;214709;1296;22604;-53
2022/09/20 19:32:50;;;;;;;10.70;3.60;;;21.80;76.30;;;;;;215060;1297;22796;-54
2022/09/20 19:38:14;;;;;;;11.70;2.80;;;21.80;76.50;;;;;;214771;1299;23526;-49
2022/09/20 19:43:26;;;;;;;11.80;3.10;;;21.80;76.10;;;;;;214759;1296;22584;-50
2022/09/20 19:48:39;;;;;;;15.50;3.30;;;21.80;75.90;;;;;;214692;1299;22710;-49
2022/09/20 19:53:54;;;;;;;11.20;3.00;;;21.80;75.70;;;;;;214785;1296;24077;-49
2022/09/20 19:59:01;;;;;;;9.70;3.00;;;21.80;75.90;;;;;;214793;1296;23101;-51
2022/09/20 20:04:06;;;;;;;11.10;3.30;;;21.90;75.80;;;;;;214587;1299;24371;-51
2022/09/20 20:09:16;;;;;;;10.30;2.90;;;21.90;76.10;;;;;;214989;1299;22564;-51
2022/09/20 20:14:41;;;;;;;18.60;5.70;;;21.90;75.50;;;;;;214873;1299;25472;-53
2022/09/20 20:20:04;;;;;;;8.40;3.50;;;21.90;76.00;;;;;;214585;1299;24262;-54
2022/09/20 20:25:30;;;;;;;8.90;3.30;;;21.90;76.00;;;;;;214905;1297;22570;-50
2022/09/20 20:30:34;;;;;;;7.20;2.50;;;21.90;76.10;;;;;;214328;1299;22690;-51
2022/09/20 20:35:38;;;;;;;6.80;2.50;;;21.90;76.70;;;;;;214693;1299;25353;-50
2022/09/20 20:40:43;;;;;;;8.30;2.60;;;22.10;76.90;;;;;;214964;1299;24308;-49
2022/09/20 20:45:51;;;;;;;14.20;3.60;;;22.20;76.30;;;;;;214620;1299;23982;-46
2022/09/20 20:51:04;;;;;;;5.80;2.30;;;22.20;78.40;;;;;;214698;1297;22608;-47
2022/09/20 20:56:24;;;;;;;9.40;2.90;;;22.20;76.60;;;;;;214686;1297;22636;-49
2022/09/20 21:01:41;;;;;;;11.40;2.80;;;22.20;75.60;;;;;;214783;1299;22570;-51
2022/09/20 21:06:51;;;;;;;9.00;2.90;;;22.10;74.80;;;;;;215072;1297;22595;-51
2022/09/20 21:12:03;;;;;;;6.70;2.70;;;22.00;74.30;;;;;;214940;1297;22574;-54
2022/09/20 21:17:07;;;;;;;9.60;2.50;;;22.00;73.80;;;;;;214686;1297;22667;-49
2022/09/20 21:22:11;;;;;;;7.80;2.50;;;22.00;73.50;;;;;;214850;1299;22617;-49
2022/09/20 21:27:14;;;;;;;5.50;2.20;;;21.90;73.20;;;;;;214825;1299;22594;-50
2022/09/20 21:32:19;;;;;;;4.60;2.30;;;21.90;72.80;;;;;;214787;1297;22654;-51
2022/09/20 21:37:23;;;;;;;6.30;2.50;;;21.90;72.80;;;;;;214761;1299;24005;-50
2022/09/20 21:42:28;;;;;;;4.20;2.20;;;21.80;72.30;;;;;;214792;1297;22509;-50
2022/09/20 21:47:34;;;;;;;9.40;1.90;;;21.80;71.70;;;;;;214941;1297;25298;-50
2022/09/20 21:52:39;;;;;;;4.10;1.70;;;21.80;71.40;;;;;;214837;1299;22584;-53
2022/09/20 21:57:48;;;;;;;4.50;1.80;;;21.70;71.30;;;;;;214753;1297;25290;-49
2022/09/20 22:02:58;;;;;;;3.90;1.90;;;21.70;70.90;;;;;;214671;1298;25462;-50
2022/09/20 22:08:02;;;;;;;4.50;1.60;;;21.70;70.30;;;;;;214825;1297;24537;-50
2022/09/20 22:13:07;;;;;;;4.20;2.10;;;21.60;70.90;;;;;;214890;1300;26357;-49
2022/09/20 22:18:10;;;;;;;5.70;2.10;;;21.60;71.00;;;;;;214818;1297;24905;-48
2022/09/20 22:23:14;;;;;;;4.20;1.90;;;21.60;70.60;;;;;;215083;1300;26538;-50
2022/09/20 22:28:18;;;;;;;4.20;2.00;;;21.60;70.20;;;;;;215297;1297;24964;-52
2022/09/20 22:33:21;;;;;;;5.40;2.10;;;21.60;70.70;;;;;;215239;1300;22572;-50
2022/09/20 22:38:28;;;;;;;6.30;2.90;;;21.50;70.70;;;;;;214871;1297;25289;-52
2022/09/20 22:43:33;;;;;;;6.50;2.40;;;21.50;70.80;;;;;;214868;1302;23412;-49
2022/09/20 22:48:37;;;;;;;4.40;1.90;;;21.50;70.80;;;;;;215018;1300;22606;-51
2022/09/20 22:53:41;;;;;;;5.20;2.50;;;21.40;70.60;;;;;;215274;1296;22553;-48
2022/09/20 22:58:52;;;;;;;3.90;1.90;;;21.40;71.00;;;;;;215069;1297;22593;-50
2022/09/20 23:04:10;;;;;;;4.40;1.90;;;21.40;71.30;;;;;;215180;1296;23992;-48
2022/09/20 23:09:20;;;;;;;6.00;1.70;;;21.40;71.60;;;;;;215025;1297;25402;-51
2022/09/20 23:14:24;;;;;;;9.40;2.10;;;21.30;70.70;;;;;;214908;1300;25329;-50
2022/09/20 23:19:28;;;;;;;5.10;2.20;;;21.30;71.60;;;;;;215031;1296;24667;-49
2022/09/20 23:24:32;;;;;;;4.10;1.70;;;21.30;71.70;;;;;;215065;1297;22596;-48
2022/09/20 23:29:37;;;;;;;5.00;1.80;;;21.20;71.20;;;;;;215262;1296;22761;-50
2022/09/20 23:34:40;;;;;;;6.00;1.90;;;21.20;71.30;;;;;;215072;1297;22576;-50
2022/09/20 23:39:44;;;;;;;4.20;2.00;;;21.20;71.40;;;;;;215116;1297;25289;-53
2022/09/20 23:44:47;;;;;;;3.80;1.90;;;21.20;71.50;;;;;;214877;1299;24325;-52
2022/09/20 23:49:51;;;;;;;3.90;1.90;;;21.10;71.50;;;;;;214751;1296;22608;-49
2022/09/20 23:54:54;;;;;;;3.40;1.80;;;21.10;71.60;;;;;;214847;1299;23004;-52
2022/09/20 23:59:58;;;;;;;3.20;1.70;;;21.10;71.50;;;;;;214647;1300;22608;-48
